createdAt,value
2022-12-03T00:00:44.178Z,100989.50
2022-12-03T00:03:15.175Z,100994.00
2022-12-03T00:05:49.149Z,100959.97
2022-12-03T00:08:20.214Z,100995.69
2022-12-03T00:10:51.532Z,100981.69
2022-12-03T00:13:24.034Z,100959.19
2022-12-03T00:15:54.855Z,100972.13
2022-12-03T00:18:25.693Z,100959.22
2022-12-03T00:20:56.430Z,100961.06
2022-12-03T00:23:27.220Z,100968.97
2022-12-03T00:25:57.963Z,100935.31
2022-12-03T00:28:30.599Z,100971.28
2022-12-03T00:31:01.468Z,100964.22
2022-12-03T00:33:32.367Z,100961.44
2022-12-03T00:36:03.021Z,100952.69
2022-12-03T00:38:33.731Z,100962.84
2022-12-03T00:41:04.430Z,100933.19
2022-12-03T00:43:37.274Z,100940.72
2022-12-03T00:46:08.109Z,100941.28
2022-12-03T00:48:38.892Z,100927.94
2022-12-03T00:51:10.120Z,100921.59
2022-12-03T00:53:40.813Z,100919.22
2022-12-03T00:56:11.943Z,100926.34
2022-12-03T00:58:44.250Z,100920.00
2022-12-03T01:01:15.028Z,100911.78
2022-12-03T01:03:45.741Z,100904.88
2022-12-03T01:06:16.459Z,100901.91
2022-12-03T01:08:47.225Z,100903.31
2022-12-03T01:11:34.878Z,100902.34
2022-12-03T01:14:07.423Z,100883.28
2022-12-03T01:16:38.453Z,100889.06
2022-12-03T01:19:10.018Z,100896.72
2022-12-03T01:21:41.211Z,100900.75
2022-12-03T01:24:12.505Z,100893.41
2022-12-03T01:26:43.338Z,100891.81
2022-12-03T01:29:16.100Z,100888.13
2022-12-03T01:32:03.571Z,100883.84
2022-12-03T01:34:34.349Z,100874.75
2022-12-03T01:37:05.256Z,100874.91
2022-12-03T01:39:36.037Z,100859.00
2022-12-03T01:42:07.622Z,100844.97
2022-12-03T01:44:42.708Z,100851.66
2022-12-03T01:47:17.514Z,100824.72
2022-12-03T01:49:53.832Z,100842.25
2022-12-03T01:52:29.837Z,100775.63
2022-12-03T01:55:04.610Z,100847.38
2022-12-03T01:57:42.933Z,100841.63
2022-12-03T02:00:18.783Z,100839.56
2022-12-03T02:02:51.183Z,100792.53
2022-12-03T02:05:24.448Z,100825.22
2022-12-03T02:08:07.196Z,100840.97
2022-12-03T02:10:40.521Z,100799.22
2022-12-03T02:13:12.873Z,100819.78
2022-12-03T02:15:45.375Z,100813.78
2022-12-03T02:18:16.183Z,100821.13
2022-12-03T02:20:56.111Z,100813.09
2022-12-03T02:23:35.562Z,100811.97
2022-12-03T02:26:08.065Z,100812.94
2022-12-03T02:28:38.937Z,100807.19
2022-12-03T02:31:10.030Z,100803.34
2022-12-03T02:33:41.842Z,100797.13
2022-12-03T02:36:14.016Z,100780.09
2022-12-03T02:38:45.944Z,100773.22
2022-12-03T02:41:34.887Z,100759.22
2022-12-03T02:44:06.397Z,100752.66
2022-12-03T02:46:38.180Z,100756.78
2022-12-03T02:49:18.525Z,100750.56
2022-12-03T02:51:49.759Z,100750.41
2022-12-03T02:54:21.181Z,100753.94
2022-12-03T02:56:53.785Z,100746.38
2022-12-03T02:59:24.615Z,100735.44
2022-12-03T03:01:55.502Z,100752.75
2022-12-03T03:04:26.776Z,100745.94
2022-12-03T03:06:57.613Z,100755.38
2022-12-03T03:09:28.840Z,100741.00
2022-12-03T03:12:01.107Z,100756.97
2022-12-03T03:14:31.744Z,100738.44
2022-12-03T03:17:02.549Z,100738.25
2022-12-03T03:19:33.889Z,100739.84
2022-12-03T03:22:04.597Z,100738.56
2022-12-03T03:24:35.874Z,100754.69
2022-12-03T03:27:09.028Z,100752.16
2022-12-03T03:29:40.118Z,100742.13
2022-12-03T03:32:10.839Z,100754.06
2022-12-03T03:34:42.657Z,100749.53
2022-12-03T03:37:13.432Z,100748.69
2022-12-03T03:39:44.235Z,100745.19
2022-12-03T03:42:16.871Z,100726.50
2022-12-03T03:44:48.940Z,100716.41
2022-12-03T03:47:20.277Z,100712.19
2022-12-03T03:49:51.681Z,100725.16
2022-12-03T03:52:23.145Z,100706.16
2022-12-03T03:54:54.199Z,100721.72
2022-12-03T03:57:27.030Z,100730.47
2022-12-03T03:59:57.891Z,100735.09
2022-12-03T04:02:32.316Z,100729.56
2022-12-03T04:05:03.560Z,100691.59
2022-12-03T04:07:34.397Z,100710.56
2022-12-03T04:10:25.831Z,100710.75
2022-12-03T04:12:56.884Z,100695.44
2022-12-03T04:15:28.733Z,100693.38
2022-12-03T04:18:16.079Z,100692.22
2022-12-03T04:20:46.881Z,100677.34
2022-12-03T04:23:16.298Z,100689.00
2022-12-03T04:26:03.777Z,100667.41
2022-12-03T04:28:54.288Z,100677.59
2022-12-03T04:31:41.825Z,100661.16
2022-12-03T04:34:29.593Z,100664.66
2022-12-03T04:37:00.325Z,100660.84
2022-12-03T04:39:30.968Z,100659.41
2022-12-03T04:42:02.316Z,100678.03
2022-12-03T04:44:40.822Z,100661.63
2022-12-03T04:47:13.795Z,100642.97
2022-12-03T04:49:46.132Z,100678.81
2022-12-03T04:52:18.360Z,100639.75
2022-12-03T04:54:49.200Z,100678.28
2022-12-03T04:57:21.836Z,100643.41
2022-12-03T04:59:55.781Z,100662.66
2022-12-03T05:02:26.495Z,100674.03
2022-12-03T05:04:57.321Z,100663.53
2022-12-03T05:07:28.067Z,100661.31
2022-12-03T05:09:58.771Z,100673.25
2022-12-03T05:12:29.490Z,100652.66
2022-12-03T05:15:01.816Z,100672.34
2022-12-03T05:17:32.590Z,100686.50
2022-12-03T05:20:20.213Z,100687.00
2022-12-03T05:22:50.953Z,100693.84
2022-12-03T05:25:21.663Z,100692.75
2022-12-03T05:27:52.359Z,100694.03
2022-12-03T05:30:24.904Z,100676.31
2022-12-03T05:36:05.331Z,100695.75
2022-12-03T05:39:14.821Z,100695.47
2022-12-03T05:42:29.629Z,100548.34
2022-12-03T05:48:41.234Z,100694.47
2022-12-03T05:51:34.394Z,100713.28
2022-12-03T05:54:22.833Z,100711.03
2022-12-03T05:57:37.005Z,100712.31
2022-12-03T06:00:20.120Z,100698.91
2022-12-03T06:03:21.471Z,100702.34
2022-12-03T06:06:17.307Z,100705.75
2022-12-03T06:09:16.913Z,100702.88
2022-12-03T06:11:59.457Z,100702.38
2022-12-03T06:14:45.051Z,100671.19
2022-12-03T06:17:37.675Z,100683.22
2022-12-03T06:20:29.904Z,100663.31
2022-12-03T06:23:29.537Z,100628.69
2022-12-03T06:26:33.090Z,100663.56
2022-12-03T06:29:18.685Z,100646.22
2022-12-03T06:31:57.609Z,100637.78
2022-12-03T06:34:35.854Z,100637.44
2022-12-03T06:37:19.158Z,100634.06
2022-12-03T06:40:16.977Z,100627.56
2022-12-03T06:43:02.444Z,100580.81
2022-12-03T06:45:44.560Z,100638.16
2022-12-03T06:48:32.601Z,100634.53
2022-12-03T06:54:11.078Z,100624.78
2022-12-03T06:57:11.808Z,100633.44
2022-12-03T06:59:54.647Z,100636.31
2022-12-03T07:02:48.553Z,100638.97
2022-12-03T07:05:32.363Z,100629.69
2022-12-03T07:12:00.329Z,100614.91
2022-12-03T07:15:31.625Z,100610.91
2022-12-03T07:22:10.535Z,100604.41
2022-12-03T08:10:57.609Z,100547.88
2022-12-03T08:13:50.869Z,100514.22
2022-12-03T08:16:32.227Z,100534.94
2022-12-03T08:19:37.055Z,100520.78
2022-12-03T08:22:45.358Z,100483.00
2022-12-03T09:05:42.559Z,100456.88
2022-12-03T09:08:18.759Z,100411.19
2022-12-03T09:11:04.401Z,100454.47
2022-12-03T09:14:20.578Z,100433.03
2022-12-03T09:17:02.683Z,100454.16
2022-12-03T09:19:56.402Z,100451.16
2022-12-03T09:22:50.087Z,100442.81
2022-12-03T09:25:33.409Z,100428.44
2022-12-03T09:28:19.724Z,100403.91
2022-12-03T09:31:04.527Z,100348.13
2022-12-03T09:33:49.921Z,100432.91
2022-12-03T09:36:31.613Z,100360.69
2022-12-03T09:39:13.676Z,100350.75
2022-12-03T09:41:58.703Z,100420.84
2022-12-03T09:44:57.362Z,100418.09
2022-12-03T09:56:55.721Z,100390.03
2022-12-03T09:59:46.807Z,100389.66
2022-12-03T10:03:02.803Z,100383.97
2022-12-03T10:05:54.066Z,100377.84
2022-12-03T10:08:47.059Z,100379.88
2022-12-03T10:11:29.059Z,100366.72
2022-12-03T10:17:58.799Z,100341.06
2022-12-03T10:20:55.369Z,100343.25
2022-12-03T10:23:37.326Z,100347.91
2022-12-03T10:33:29.860Z,100304.75
2022-12-03T10:36:32.920Z,100323.78
2022-12-03T10:39:17.096Z,100317.06
2022-12-03T10:41:58.762Z,100212.13
2022-12-03T10:44:40.457Z,100294.75
2022-12-03T10:47:31.730Z,100314.72
2022-12-03T10:56:58.848Z,100272.41
2022-12-03T10:59:49.652Z,100288.59
2022-12-03T11:02:30.580Z,100285.31
2022-12-03T11:05:12.078Z,100299.81
2022-12-03T11:07:53.826Z,100279.53
2022-12-03T11:14:01.660Z,100258.38
2022-12-03T11:17:14.964Z,100262.31
2022-12-03T11:19:54.149Z,100237.78
2022-12-03T11:22:47.656Z,100257.25
2022-12-03T11:25:53.279Z,100249.06
2022-12-03T11:28:39.320Z,100244.75
2022-12-03T11:31:37.447Z,100221.59
2022-12-03T11:34:44.579Z,100203.78
2022-12-03T11:37:32.601Z,100229.63
2022-12-03T11:40:39.569Z,100196.94
2022-12-03T11:43:13.918Z,100231.78
2022-12-03T11:45:45.616Z,100222.25
2022-12-03T11:48:19.940Z,100193.22
2022-12-03T11:50:55.594Z,100217.13
2022-12-03T11:53:30.688Z,100225.03
2022-12-03T11:56:10.078Z,100197.44
2022-12-03T11:58:46.575Z,100189.38
2022-12-03T12:01:38.546Z,100190.69
2022-12-03T12:04:49.258Z,100154.53
2022-12-03T12:07:34.170Z,100192.53
2022-12-03T12:10:06.526Z,100149.06
2022-12-03T12:12:51.107Z,100125.41
2022-12-03T12:15:53.282Z,100177.97
2022-12-03T12:18:42.517Z,100177.28
2022-12-03T12:21:48.778Z,100189.97
2022-12-03T12:24:41.440Z,100185.13
2022-12-03T12:27:14.215Z,100195.72
2022-12-03T12:29:49.556Z,100157.59
2022-12-03T12:32:27.017Z,100178.63
2022-12-03T12:35:01.777Z,100166.59
2022-12-03T12:37:38.967Z,100186.31
2022-12-03T12:40:18.798Z,100162.00
2022-12-03T12:42:55.419Z,100144.59
2022-12-03T12:45:42.779Z,100154.94
2022-12-03T12:48:25.534Z,100182.19
2022-12-03T12:51:03.090Z,100167.06
2022-12-03T12:53:37.546Z,100169.50
2022-12-03T12:56:20.928Z,100133.34
2022-12-03T12:58:51.894Z,100145.13
2022-12-03T13:01:28.094Z,100089.91
2022-12-03T13:03:59.684Z,100149.44
2022-12-03T13:06:35.456Z,100126.72
2022-12-03T13:09:12.456Z,100136.66
2022-12-03T13:11:47.681Z,100115.03
2022-12-03T13:14:21.263Z,100142.44
2022-12-03T13:16:53.329Z,100005.16
2022-12-03T13:19:28.609Z,100118.28
2022-12-03T13:26:37.793Z,99946.13
2022-12-03T13:29:22.894Z,100064.50
2022-12-03T13:31:57.127Z,100104.28
2022-12-03T13:34:29.464Z,100081.16
2022-12-03T13:37:04.413Z,100099.09
2022-12-03T13:39:38.811Z,100076.84
2022-12-03T13:42:42.512Z,100096.06
2022-12-03T13:45:35.547Z,100053.88
2022-12-03T13:48:16.588Z,100066.06
2022-12-03T13:50:56.975Z,100045.19
2022-12-03T13:53:30.438Z,100037.19
2022-12-03T13:56:28.189Z,100043.47
2022-12-03T13:59:09.327Z,100015.38
2022-12-03T14:01:44.268Z,100038.94
2022-12-03T14:04:16.063Z,100044.00
2022-12-03T14:06:56.940Z,100026.56
2022-12-03T14:09:28.114Z,100016.28
2022-12-03T14:12:37.165Z,100012.59
2022-12-03T14:15:13.582Z,100030.06
2022-12-03T14:17:51.782Z,100026.56
2022-12-03T14:20:23.051Z,100000.22
2022-12-03T14:22:59.087Z,100002.91
2022-12-03T14:25:33.469Z,100008.13
2022-12-03T14:28:23.328Z,99997.38
2022-12-03T14:31:06.360Z,100001.91
2022-12-03T14:33:56.053Z,99766.41
2022-12-03T14:36:26.977Z,100000.09
2022-12-03T14:38:58.925Z,99969.88
2022-12-03T14:44:38.013Z,99974.19
2022-12-03T14:47:41.370Z,99968.63
2022-12-03T14:50:26.188Z,99951.84
2022-12-03T14:53:27.518Z,99945.03
2022-12-03T14:58:55.325Z,99934.19
2022-12-03T15:01:49.131Z,99906.50
2022-12-03T15:04:44.755Z,99908.09
2022-12-03T15:07:26.207Z,99915.19
2022-12-03T15:10:02.663Z,99910.09
2022-12-03T15:12:55.595Z,99901.72
2022-12-03T15:15:45.383Z,99901.72
2022-12-03T15:18:30.168Z,99892.75
2022-12-03T15:21:37.144Z,99873.00
2022-12-03T15:27:22.485Z,99796.06
2022-12-03T15:29:59.522Z,99887.97
2022-12-03T15:32:46.389Z,99895.06
2022-12-03T15:35:19.791Z,99894.34
2022-12-03T15:38:05.290Z,99912.22
2022-12-03T15:40:50.514Z,99875.91
2022-12-03T15:43:28.675Z,99897.53
2022-12-03T15:46:12.110Z,99890.88
2022-12-03T15:49:14.531Z,99887.38
2022-12-03T15:51:52.557Z,99881.56
2022-12-03T15:54:38.333Z,99868.03
2022-12-03T15:57:34.576Z,99890.88
2022-12-03T16:00:25.508Z,99883.47
2022-12-03T16:03:20.582Z,99881.75
2022-12-03T16:06:09.064Z,99878.53
2022-12-03T16:08:55.864Z,99831.84
2022-12-03T16:11:50.029Z,99873.47
2022-12-03T16:14:37.769Z,99881.47
2022-12-03T16:17:42.768Z,99872.75
2022-12-03T16:20:18.777Z,99868.81
2022-12-03T16:22:56.226Z,99867.28
2022-12-03T16:25:34.062Z,99867.56
2022-12-03T16:28:21.770Z,99870.09
2022-12-03T16:31:01.631Z,99865.16
2022-12-03T16:33:39.200Z,99873.84
2022-12-03T16:36:23.043Z,99859.94
2022-12-03T16:39:13.263Z,99878.16
2022-12-03T16:42:02.561Z,99882.72
2022-12-03T16:45:15.562Z,99878.81
2022-12-03T16:48:09.968Z,99875.31
2022-12-03T16:50:52.971Z,99898.88
2022-12-03T16:53:45.122Z,99909.59
2022-12-03T16:56:21.628Z,99904.34
2022-12-03T16:59:01.742Z,99912.28
2022-12-03T17:01:43.988Z,99916.97
2022-12-03T17:04:51.235Z,99902.00
2022-12-03T17:07:44.281Z,99901.59
2022-12-03T17:10:47.703Z,99911.06
2022-12-03T17:13:35.136Z,99895.88
2022-12-03T17:16:28.177Z,99908.59
2022-12-03T17:19:12.839Z,99906.69
2022-12-03T17:22:06.040Z,99905.97
2022-12-03T17:24:58.038Z,99902.22
2022-12-03T17:27:35.489Z,99904.44
2022-12-03T17:30:20.790Z,99895.06
2022-12-03T17:33:19.381Z,99906.09
2022-12-03T17:36:26.908Z,99904.38
2022-12-03T17:39:25.783Z,99904.50
2022-12-03T17:42:23.148Z,99897.84
2022-12-03T17:45:18.112Z,99895.81
2022-12-03T17:48:11.788Z,99895.19
2022-12-03T17:50:59.790Z,99884.97
2022-12-03T17:53:38.364Z,99907.47
2022-12-03T17:56:33.243Z,99902.38
2022-12-03T17:59:20.189Z,99893.13
2022-12-03T18:02:05.972Z,99894.16
2022-12-03T18:07:45.619Z,99902.72
2022-12-03T18:10:35.209Z,99906.44
2022-12-03T18:13:20.019Z,99899.94
2022-12-03T18:16:06.255Z,99889.00
2022-12-03T18:22:04.680Z,99908.06
2022-12-03T18:24:41.260Z,99902.81
2022-12-03T18:27:25.564Z,99896.44
2022-12-03T18:30:11.163Z,99905.63
2022-12-03T18:32:59.617Z,99891.56
2022-12-03T18:35:41.402Z,99908.22
2022-12-03T18:38:25.173Z,99856.59
2022-12-03T18:41:12.873Z,99901.06
2022-12-03T18:44:00.073Z,99902.34
2022-12-03T18:46:53.380Z,99907.84
2022-12-03T18:49:41.162Z,99897.03
2022-12-03T18:52:18.748Z,99890.44
2022-12-03T18:58:17.536Z,99886.31
2022-12-03T19:00:56.760Z,99890.25
2022-12-03T19:03:48.058Z,99880.84
2022-12-03T19:06:42.186Z,99904.03
2022-12-03T19:09:21.333Z,99904.03
2022-12-03T19:12:12.853Z,99913.63
2022-12-03T19:14:52.085Z,99912.91
2022-12-03T19:17:41.033Z,99908.66
2022-12-03T19:20:42.897Z,99896.28
2022-12-03T19:23:29.736Z,99909.22
2022-12-03T19:26:36.343Z,99910.06
2022-12-03T19:29:17.774Z,99903.44
2022-12-03T19:31:57.813Z,99897.25
2022-12-03T19:34:42.725Z,99905.47
2022-12-03T19:37:23.257Z,99903.09
2022-12-03T19:43:18.414Z,99902.47
2022-12-03T19:46:04.674Z,99905.69
2022-12-03T19:48:48.056Z,99912.81
2022-12-03T19:51:38.292Z,99902.66
2022-12-03T19:54:48.840Z,99901.59
2022-12-03T19:57:44.978Z,99891.94
2022-12-03T20:00:32.681Z,99918.56
2022-12-03T20:06:13.342Z,99932.84
2022-12-03T20:08:57.932Z,99932.91
2022-12-03T20:11:39.618Z,99941.44
2022-12-03T20:14:20.885Z,99936.94
2022-12-03T20:17:11.511Z,99943.91
2022-12-03T20:20:04.453Z,99956.25
2022-12-03T20:22:44.485Z,99941.50
2022-12-03T20:25:30.119Z,99939.16
2022-12-03T20:28:33.936Z,99961.78
2022-12-03T20:31:13.068Z,99975.00
2022-12-03T20:33:55.107Z,99910.94
2022-12-03T20:36:41.133Z,99972.88
2022-12-03T20:39:21.613Z,99978.66
2022-12-03T20:42:18.635Z,99967.00
2022-12-03T20:45:01.916Z,99961.72
2022-12-03T20:47:49.086Z,99950.41
2022-12-03T20:50:28.458Z,99984.88
2022-12-03T20:53:32.572Z,99967.56
2022-12-03T20:56:21.640Z,99957.19
2022-12-03T20:59:13.979Z,99975.41
2022-12-03T21:02:22.050Z,99983.47
2022-12-03T21:05:00.815Z,99980.00
2022-12-03T21:08:05.948Z,99986.53
2022-12-03T21:10:55.672Z,99987.94
2022-12-03T21:13:52.712Z,99968.41
2022-12-03T21:17:07.107Z,99999.13
2022-12-03T21:19:58.234Z,100005.59
2022-12-03T21:22:52.115Z,100018.16
2022-12-03T21:25:38.556Z,100028.66
2022-12-03T21:28:25.096Z,99928.56
2022-12-03T21:31:20.406Z,100048.75
2022-12-03T21:34:03.872Z,100048.72
2022-12-03T21:36:45.391Z,100061.59
2022-12-03T21:39:32.308Z,100055.41
2022-12-03T21:42:34.512Z,100038.78
2022-12-03T21:48:07.842Z,100047.03
2022-12-03T21:54:07.999Z,100046.88
2022-12-03T21:56:45.979Z,100053.47
2022-12-03T21:59:25.140Z,100029.00
2022-12-03T22:05:09.985Z,100065.34
2022-12-03T22:07:52.470Z,100023.38
2022-12-03T22:10:43.541Z,100074.28
2022-12-03T22:13:25.705Z,100081.00
2022-12-03T22:16:16.926Z,100081.69
2022-12-03T22:19:04.759Z,100083.44
2022-12-03T22:22:02.319Z,100088.31
2022-12-03T22:24:51.155Z,100099.78
2022-12-03T22:27:39.067Z,100108.34
2022-12-03T22:30:27.727Z,100104.84
2022-12-03T22:33:20.413Z,100100.59
2022-12-03T22:36:20.569Z,100089.09
2022-12-03T22:39:29.982Z,100089.50
2022-12-03T22:42:22.499Z,100117.28
2022-12-03T22:44:59.602Z,100108.91
2022-12-03T22:47:43.964Z,100112.63
2022-12-03T22:50:21.744Z,100118.72
2022-12-03T22:53:02.146Z,100123.69
2022-12-03T22:55:39.723Z,100123.38
2022-12-03T22:58:37.059Z,100121.72
2022-12-03T23:04:32.172Z,100133.47
2022-12-03T23:07:33.235Z,100132.88
2022-12-03T23:10:32.612Z,100118.66
2022-12-03T23:13:18.144Z,100129.00
2022-12-03T23:16:11.127Z,100122.16
2022-12-03T23:18:50.218Z,100110.13
2022-12-03T23:21:35.062Z,100097.50
2022-12-03T23:24:13.667Z,100124.88
2022-12-03T23:26:51.688Z,100129.38
2022-12-03T23:29:44.913Z,100131.69
2022-12-03T23:32:36.163Z,100127.03
2022-12-03T23:35:53.045Z,100134.94
2022-12-03T23:38:39.978Z,100137.25
2022-12-03T23:44:23.419Z,100139.38
2022-12-03T23:50:11.574Z,100132.22
2022-12-03T23:55:58.738Z,100127.44
2022-12-03T23:58:37.532Z,100119.81
